Allardt, Tennessee
Current Conditions -  °F | °C
As of 1:53 PM on Friday 19 Dec 2014 (Local Time) from KCSV Reporting Station
Clear Clear  
Wind Chill: 37°   Ceiling: Unl
Heat Index: 40°   Visibility: 10mi
Dew Point: 24°   Wind: 5mph
Humidity: 53%   Direction: 340°NNW
Pressure: 30.16"   Gusts: NA
Location:  36.38°N, 84.88°W
Report Text: KCSV 191953Z AUTO 34004KT 10SM CLR 04/M04 A3016 RMK AO2 SLP222 T00441044
Loading
Personal Weather Stations






























Interactive Weather Map New forecast layout! Learn more

10-Day Weather Forecast

Advertisements
Track Severe Weather on mobile